Terminal Aerodrome Forecast
Issued by NWS

Home | Current Version | Previous Version | Text Only | Print | Product List | Glossary Off
Versions: 1 2 3 4 5 6 7 8 9 10 11 12

000
FTUS45 KGGW 271100
TAFSDY
TAF
KSDY 271137Z 2712/2812 24007KT P6SM BKN090
     FM271500 27011KT P6SM BKN090
     FM280000 35007KT P6SM SCT070
     FM280900 15007KT P6SM SCT140
      AMD LTD TO CLD VIS AND WIND=

USA.gov is the U.S. government's official web portal to all federal, state and local government web resources and services.